sensor_id;sensor_type;location;lat;lon;timestamp;P1;durP1;ratioP1;P2;durP2;ratioP2
64210;SDS011;73293;48.538;14.354;2023-10-31T00:00:10;3.50;;;1.40;;
64210;SDS011;73293;48.538;14.354;2023-10-31T00:01:05;5.40;;;1.40;;
64210;SDS011;73293;48.538;14.354;2023-10-31T00:01:39;6.20;;;1.70;;
64210;SDS011;73293;48.538;14.354;2023-10-31T00:03:17;3.40;;;1.30;;
64210;SDS011;73293;48.538;14.354;2023-10-31T00:03:51;6.60;;;1.80;;
64210;SDS011;73293;48.538;14.354;2023-10-31T00:04:25;6.40;;;1.50;;
64210;SDS011;73293;48.538;14.354;2023-10-31T00:05:00;5.40;;;1.60;;
64210;SDS011;73293;48.538;14.354;2023-10-31T00:05:33;5.50;;;1.60;;
64210;SDS011;73293;48.538;14.354;2023-10-31T00:06:59;4.40;;;1.50;;
64210;SDS011;73293;48.538;14.354;2023-10-31T00:07:32;4.70;;;1.40;;
64210;SDS011;73293;48.538;14.354;2023-10-31T00:08:05;3.50;;;1.60;;
64210;SDS011;73293;48.538;14.354;2023-10-31T00:08:39;4.40;;;1.70;;
64210;SDS011;73293;48.538;14.354;2023-10-31T00:09:12;3.70;;;1.70;;
64210;SDS011;73293;48.538;14.354;2023-10-31T00:10:39;5.10;;;1.80;;
64210;SDS011;73293;48.538;14.354;2023-10-31T00:11:18;4.70;;;1.70;;
64210;SDS011;73293;48.538;14.354;2023-10-31T00:11:51;5.20;;;1.80;;
64210;SDS011;73293;48.538;14.354;2023-10-31T00:12:25;5.50;;;1.90;;
64210;SDS011;73293;48.538;14.354;2023-10-31T00:12:59;5.10;;;1.80;;
64210;SDS011;73293;48.538;14.354;2023-10-31T00:14:25;4.40;;;1.90;;
64210;SDS011;73293;48.538;14.354;2023-10-31T00:15:03;5.70;;;2.10;;
64210;SDS011;73293;48.538;14.354;2023-10-31T00:15:37;9.40;;;2.20;;
64210;SDS011;73293;48.538;14.354;2023-10-31T00:16:11;4.80;;;1.80;;
64210;SDS011;73293;48.538;14.354;2023-10-31T00:16:45;4.90;;;1.80;;
64210;SDS011;73293;48.538;14.354;2023-10-31T00:18:10;7.60;;;2.10;;
64210;SDS011;73293;48.538;14.354;2023-10-31T00:18:44;7.10;;;2.10;;
64210;SDS011;73293;48.538;14.354;2023-10-31T00:19:18;4.70;;;2.00;;
64210;SDS011;73293;48.538;14.354;2023-10-31T00:19:52;5.50;;;2.20;;
64210;SDS011;73293;48.538;14.354;2023-10-31T00:20:25;5.10;;;2.10;;
64210;SDS011;73293;48.538;14.354;2023-10-31T00:21:53;6.00;;;2.10;;
64210;SDS011;73293;48.538;14.354;2023-10-31T00:22:27;5.50;;;2.10;;
64210;SDS011;73293;48.538;14.354;2023-10-31T00:23:01;5.90;;;2.20;;
64210;SDS011;73293;48.538;14.354;2023-10-31T00:23:42;4.30;;;2.10;;
64210;SDS011;73293;48.538;14.354;2023-10-31T00:25:29;5.40;;;2.00;;
64210;SDS011;73293;48.538;14.354;2023-10-31T00:26:02;5.50;;;2.40;;
64210;SDS011;73293;48.538;14.354;2023-10-31T00:26:36;7.40;;;2.10;;
64210;SDS011;73293;48.538;14.354;2023-10-31T00:27:09;5.40;;;2.20;;
64210;SDS011;73293;48.538;14.354;2023-10-31T00:27:43;6.70;;;2.10;;
64210;SDS011;73293;48.538;14.354;2023-10-31T00:29:11;5.80;;;2.20;;
64210;SDS011;73293;48.538;14.354;2023-10-31T00:29:45;4.20;;;2.20;;
64210;SDS011;73293;48.538;14.354;2023-10-31T00:30:18;4.70;;;2.30;;
64210;SDS011;73293;48.538;14.354;2023-10-31T00:30:52;4.90;;;1.70;;
64210;SDS011;73293;48.538;14.354;2023-10-31T00:31:26;5.40;;;2.40;;
64210;SDS011;73293;48.538;14.354;2023-10-31T00:32:48;4.20;;;2.00;;
64210;SDS011;73293;48.538;14.354;2023-10-31T00:33:22;6.10;;;2.40;;
64210;SDS011;73293;48.538;14.354;2023-10-31T00:33:55;4.80;;;2.10;;
64210;SDS011;73293;48.538;14.354;2023-10-31T00:34:30;5.10;;;2.10;;
64210;SDS011;73293;48.538;14.354;2023-10-31T00:35:04;5.30;;;2.20;;
64210;SDS011;73293;48.538;14.354;2023-10-31T00:36:26;5.10;;;2.40;;
64210;SDS011;73293;48.538;14.354;2023-10-31T00:37:01;4.20;;;2.00;;
64210;SDS011;73293;48.538;14.354;2023-10-31T00:37:34;5.40;;;2.30;;
64210;SDS011;73293;48.538;14.354;2023-10-31T00:38:08;4.30;;;2.30;;
64210;SDS011;73293;48.538;14.354;2023-10-31T00:38:43;4.60;;;2.40;;
64210;SDS011;73293;48.538;14.354;2023-10-31T00:40:11;5.00;;;2.10;;
64210;SDS011;73293;48.538;14.354;2023-10-31T00:40:47;4.70;;;2.40;;
64210;SDS011;73293;48.538;14.354;2023-10-31T00:41:21;5.90;;;2.40;;
64210;SDS011;73293;48.538;14.354;2023-10-31T00:41:55;4.30;;;2.40;;
64210;SDS011;73293;48.538;14.354;2023-10-31T00:42:29;4.50;;;2.60;;
64210;SDS011;73293;48.538;14.354;2023-10-31T00:43:46;3.50;;;2.30;;
64210;SDS011;73293;48.538;14.354;2023-10-31T00:44:20;6.70;;;2.70;;
64210;SDS011;73293;48.538;14.354;2023-10-31T00:44:54;5.00;;;2.50;;
64210;SDS011;73293;48.538;14.354;2023-10-31T00:45:27;4.50;;;2.70;;
64210;SDS011;73293;48.538;14.354;2023-10-31T00:46:03;5.20;;;2.40;;
64210;SDS011;73293;48.538;14.354;2023-10-31T00:47:28;5.30;;;2.80;;
64210;SDS011;73293;48.538;14.354;2023-10-31T00:48:02;7.10;;;2.80;;
64210;SDS011;73293;48.538;14.354;2023-10-31T00:48:36;6.00;;;3.10;;
64210;SDS011;73293;48.538;14.354;2023-10-31T00:49:10;5.20;;;2.90;;
64210;SDS011;73293;48.538;14.354;2023-10-31T00:49:44;5.50;;;3.10;;
64210;SDS011;73293;48.538;14.354;2023-10-31T00:51:09;4.70;;;2.90;;
64210;SDS011;73293;48.538;14.354;2023-10-31T00:51:42;4.80;;;3.00;;
64210;SDS011;73293;48.538;14.354;2023-10-31T00:52:16;7.10;;;3.10;;
64210;SDS011;73293;48.538;14.354;2023-10-31T00:52:51;4.60;;;2.90;;
64210;SDS011;73293;48.538;14.354;2023-10-31T00:53:25;5.90;;;3.20;;
64210;SDS011;73293;48.538;14.354;2023-10-31T00:54:53;4.70;;;3.50;;
64210;SDS011;73293;48.538;14.354;2023-10-31T00:55:26;5.10;;;3.70;;
64210;SDS011;73293;48.538;14.354;2023-10-31T00:56:01;6.70;;;4.00;;
64210;SDS011;73293;48.538;14.354;2023-10-31T00:56:35;5.20;;;3.90;;
64210;SDS011;73293;48.538;14.354;2023-10-31T00:57:09;6.60;;;3.80;;
64210;SDS011;73293;48.538;14.354;2023-10-31T00:58:31;4.60;;;3.70;;
64210;SDS011;73293;48.538;14.354;2023-10-31T00:59:05;5.30;;;3.60;;
64210;SDS011;73293;48.538;14.354;2023-10-31T00:59:39;7.50;;;4.30;;
64210;SDS011;73293;48.538;14.354;2023-10-31T01:00:13;5.60;;;4.20;;
64210;SDS011;73293;48.538;14.354;2023-10-31T01:00:47;7.70;;;4.30;;
64210;SDS011;73293;48.538;14.354;2023-10-31T01:02:12;6.90;;;4.50;;
64210;SDS011;73293;48.538;14.354;2023-10-31T01:02:46;8.10;;;4.70;;
64210;SDS011;73293;48.538;14.354;2023-10-31T01:03:20;8.00;;;4.90;;
64210;SDS011;73293;48.538;14.354;2023-10-31T01:03:54;7.60;;;5.30;;
64210;SDS011;73293;48.538;14.354;2023-10-31T01:04:28;8.10;;;5.30;;
64210;SDS011;73293;48.538;14.354;2023-10-31T01:05:53;5.50;;;4.60;;
64210;SDS011;73293;48.538;14.354;2023-10-31T01:06:27;7.80;;;4.90;;
64210;SDS011;73293;48.538;14.354;2023-10-31T01:07:01;8.20;;;5.50;;
64210;SDS011;73293;48.538;14.354;2023-10-31T01:07:35;8.70;;;5.60;;
64210;SDS011;73293;48.538;14.354;2023-10-31T01:08:09;7.50;;;5.60;;
64210;SDS011;73293;48.538;14.354;2023-10-31T01:09:35;10.90;;;6.60;;
64210;SDS011;73293;48.538;14.354;2023-10-31T01:10:09;8.20;;;5.90;;
64210;SDS011;73293;48.538;14.354;2023-10-31T01:10:43;7.50;;;5.70;;
64210;SDS011;73293;48.538;14.354;2023-10-31T01:11:18;7.70;;;5.40;;
64210;SDS011;73293;48.538;14.354;2023-10-31T01:11:52;9.10;;;6.30;;
64210;SDS011;73293;48.538;14.354;2023-10-31T01:13:13;12.30;;;6.30;;
64210;SDS011;73293;48.538;14.354;2023-10-31T01:13:47;8.60;;;6.10;;
64210;SDS011;73293;48.538;14.354;2023-10-31T01:14:22;8.30;;;6.20;;
64210;SDS011;73293;48.538;14.354;2023-10-31T01:14:55;7.40;;;6.00;;
64210;SDS011;73293;48.538;14.354;2023-10-31T01:15:30;8.20;;;5.90;;
64210;SDS011;73293;48.538;14.354;2023-10-31T01:16:54;8.00;;;5.90;;
64210;SDS011;73293;48.538;14.354;2023-10-31T01:17:29;7.80;;;5.90;;
64210;SDS011;73293;48.538;14.354;2023-10-31T01:18:02;7.30;;;5.90;;
64210;SDS011;73293;48.538;14.354;2023-10-31T01:18:36;9.60;;;6.10;;
64210;SDS011;73293;48.538;14.354;2023-10-31T01:19:09;6.10;;;4.40;;
64210;SDS011;73293;48.538;14.354;2023-10-31T01:20:36;6.00;;;5.00;;
64210;SDS011;73293;48.538;14.354;2023-10-31T01:21:11;7.50;;;4.70;;
64210;SDS011;73293;48.538;14.354;2023-10-31T01:21:45;4.90;;;4.10;;
64210;SDS011;73293;48.538;14.354;2023-10-31T01:22:18;6.50;;;4.90;;
64210;SDS011;73293;48.538;14.354;2023-10-31T01:22:52;9.50;;;4.80;;
64210;SDS011;73293;48.538;14.354;2023-10-31T01:24:24;6.90;;;4.80;;
64210;SDS011;73293;48.538;14.354;2023-10-31T01:24:58;5.80;;;4.90;;
64210;SDS011;73293;48.538;14.354;2023-10-31T01:25:32;6.20;;;4.60;;
64210;SDS011;73293;48.538;14.354;2023-10-31T01:26:06;5.90;;;4.20;;
64210;SDS011;73293;48.538;14.354;2023-10-31T01:26:40;6.50;;;4.30;;
64210;SDS011;73293;48.538;14.354;2023-10-31T01:27:57;6.30;;;4.10;;
64210;SDS011;73293;48.538;14.354;2023-10-31T01:28:31;4.50;;;3.70;;
64210;SDS011;73293;48.538;14.354;2023-10-31T01:29:05;7.10;;;3.90;;
64210;SDS011;73293;48.538;14.354;2023-10-31T01:29:39;4.20;;;3.50;;
64210;SDS011;73293;48.538;14.354;2023-10-31T01:30:13;4.80;;;3.60;;
64210;SDS011;73293;48.538;14.354;2023-10-31T01:31:40;4.60;;;3.00;;
64210;SDS011;73293;48.538;14.354;2023-10-31T01:32:31;4.10;;;3.00;;
64210;SDS011;73293;48.538;14.354;2023-10-31T01:33:05;3.60;;;2.80;;
64210;SDS011;73293;48.538;14.354;2023-10-31T01:33:38;6.00;;;3.20;;
64210;SDS011;73293;48.538;14.354;2023-10-31T01:34:12;3.70;;;2.70;;
64210;SDS011;73293;48.538;14.354;2023-10-31T01:35:30;3.90;;;2.60;;
64210;SDS011;73293;48.538;14.354;2023-10-31T01:36:04;3.40;;;2.30;;
64210;SDS011;73293;48.538;14.354;2023-10-31T01:36:38;3.50;;;2.30;;
64210;SDS011;73293;48.538;14.354;2023-10-31T01:37:12;3.20;;;2.40;;
64210;SDS011;73293;48.538;14.354;2023-10-31T01:37:47;3.40;;;2.30;;
64210;SDS011;73293;48.538;14.354;2023-10-31T01:39:08;3.30;;;2.30;;
64210;SDS011;73293;48.538;14.354;2023-10-31T01:39:43;2.90;;;2.00;;
64210;SDS011;73293;48.538;14.354;2023-10-31T01:40:18;4.70;;;2.50;;
64210;SDS011;73293;48.538;14.354;2023-10-31T01:40:53;3.00;;;2.30;;
64210;SDS011;73293;48.538;14.354;2023-10-31T01:41:27;3.20;;;2.10;;
64210;SDS011;73293;48.538;14.354;2023-10-31T01:42:48;3.20;;;2.40;;
64210;SDS011;73293;48.538;14.354;2023-10-31T01:43:35;2.90;;;2.10;;
64210;SDS011;73293;48.538;14.354;2023-10-31T01:44:15;8.40;;;7.30;;
64210;SDS011;73293;48.538;14.354;2023-10-31T01:44:49;4.40;;;1.90;;
64210;SDS011;73293;48.538;14.354;2023-10-31T01:46:32;3.30;;;2.40;;
64210;SDS011;73293;48.538;14.354;2023-10-31T01:47:07;3.50;;;2.50;;
64210;SDS011;73293;48.538;14.354;2023-10-31T01:47:42;2.90;;;2.10;;
64210;SDS011;73293;48.538;14.354;2023-10-31T01:48:23;3.50;;;2.40;;
64210;SDS011;73293;48.538;14.354;2023-10-31T01:49:04;3.30;;;2.10;;
64210;SDS011;73293;48.538;14.354;2023-10-31T01:50:22;3.20;;;2.10;;
64210;SDS011;73293;48.538;14.354;2023-10-31T01:50:57;2.80;;;2.00;;
64210;SDS011;73293;48.538;14.354;2023-10-31T01:51:32;2.60;;;1.80;;
64210;SDS011;73293;48.538;14.354;2023-10-31T01:52:06;2.60;;;1.80;;
64210;SDS011;73293;48.538;14.354;2023-10-31T01:52:41;4.70;;;2.20;;
64210;SDS011;73293;48.538;14.354;2023-10-31T01:54:03;3.20;;;2.00;;
64210;SDS011;73293;48.538;14.354;2023-10-31T01:54:38;3.00;;;1.80;;
64210;SDS011;73293;48.538;14.354;2023-10-31T01:55:13;2.20;;;1.50;;
64210;SDS011;73293;48.538;14.354;2023-10-31T01:55:47;2.50;;;1.60;;
64210;SDS011;73293;48.538;14.354;2023-10-31T01:56:22;2.40;;;1.60;;
64210;SDS011;73293;48.538;14.354;2023-10-31T01:57:41;2.40;;;1.50;;
64210;SDS011;73293;48.538;14.354;2023-10-31T01:58:23;2.20;;;1.40;;
64210;SDS011;73293;48.538;14.354;2023-10-31T01:59:02;2.60;;;1.40;;
64210;SDS011;73293;48.538;14.354;2023-10-31T01:59:39;2.60;;;1.50;;
64210;SDS011;73293;48.538;14.354;2023-10-31T02:00:13;2.00;;;1.30;;
64210;SDS011;73293;48.538;14.354;2023-10-31T02:01:35;1.40;;;0.80;;
64210;SDS011;73293;48.538;14.354;2023-10-31T02:02:11;2.30;;;1.20;;
64210;SDS011;73293;48.538;14.354;2023-10-31T02:02:47;2.00;;;1.20;;
64210;SDS011;73293;48.538;14.354;2023-10-31T02:03:25;2.20;;;1.10;;
64210;SDS011;73293;48.538;14.354;2023-10-31T02:05:10;2.00;;;1.10;;
64210;SDS011;73293;48.538;14.354;2023-10-31T02:05:44;1.80;;;1.00;;
64210;SDS011;73293;48.538;14.354;2023-10-31T02:06:19;2.40;;;1.00;;
64210;SDS011;73293;48.538;14.354;2023-10-31T02:06:53;1.80;;;0.90;;
64210;SDS011;73293;48.538;14.354;2023-10-31T02:07:27;1.60;;;0.90;;
64210;SDS011;73293;48.538;14.354;2023-10-31T02:08:51;2.00;;;0.90;;
64210;SDS011;73293;48.538;14.354;2023-10-31T02:09:25;3.60;;;0.90;;
64210;SDS011;73293;48.538;14.354;2023-10-31T02:10:00;1.30;;;0.80;;
64210;SDS011;73293;48.538;14.354;2023-10-31T02:10:34;2.30;;;0.90;;
64210;SDS011;73293;48.538;14.354;2023-10-31T02:11:08;1.70;;;0.80;;
64210;SDS011;73293;48.538;14.354;2023-10-31T02:12:34;1.50;;;0.80;;
64210;SDS011;73293;48.538;14.354;2023-10-31T02:13:11;2.00;;;0.80;;
64210;SDS011;73293;48.538;14.354;2023-10-31T02:13:46;1.80;;;0.90;;
64210;SDS011;73293;48.538;14.354;2023-10-31T02:14:21;1.40;;;0.80;;
64210;SDS011;73293;48.538;14.354;2023-10-31T02:16:11;1.60;;;0.90;;
64210;SDS011;73293;48.538;14.354;2023-10-31T02:16:46;1.80;;;0.90;;
64210;SDS011;73293;48.538;14.354;2023-10-31T02:17:20;1.60;;;0.90;;
64210;SDS011;73293;48.538;14.354;2023-10-31T02:17:54;1.50;;;0.80;;
64210;SDS011;73293;48.538;14.354;2023-10-31T02:18:28;1.50;;;0.80;;
64210;SDS011;73293;48.538;14.354;2023-10-31T02:19:52;1.50;;;0.80;;
64210;SDS011;73293;48.538;14.354;2023-10-31T02:20:32;1.40;;;0.70;;
64210;SDS011;73293;48.538;14.354;2023-10-31T02:21:07;1.70;;;0.80;;
64210;SDS011;73293;48.538;14.354;2023-10-31T02:21:41;2.00;;;0.90;;
64210;SDS011;73293;48.538;14.354;2023-10-31T02:23:28;1.50;;;0.60;;
64210;SDS011;73293;48.538;14.354;2023-10-31T02:24:02;1.50;;;1.00;;
64210;SDS011;73293;48.538;14.354;2023-10-31T02:24:36;1.50;;;0.90;;
64210;SDS011;73293;48.538;14.354;2023-10-31T02:25:17;1.40;;;0.70;;
64210;SDS011;73293;48.538;14.354;2023-10-31T02:25:52;1.20;;;0.60;;
64210;SDS011;73293;48.538;14.354;2023-10-31T02:27:08;1.50;;;0.80;;
64210;SDS011;73293;48.538;14.354;2023-10-31T02:27:43;1.60;;;0.80;;
64210;SDS011;73293;48.538;14.354;2023-10-31T02:28:16;1.30;;;0.60;;
64210;SDS011;73293;48.538;14.354;2023-10-31T02:28:50;1.40;;;0.80;;
64210;SDS011;73293;48.538;14.354;2023-10-31T02:29:24;1.30;;;0.70;;
64210;SDS011;73293;48.538;14.354;2023-10-31T02:30:50;1.20;;;0.70;;
64210;SDS011;73293;48.538;14.354;2023-10-31T02:31:25;2.00;;;0.70;;
64210;SDS011;73293;48.538;14.354;2023-10-31T02:31:59;2.40;;;0.70;;
64210;SDS011;73293;48.538;14.354;2023-10-31T02:32:33;1.10;;;0.60;;
64210;SDS011;73293;48.538;14.354;2023-10-31T02:33:08;1.50;;;0.60;;
64210;SDS011;73293;48.538;14.354;2023-10-31T02:34:32;1.50;;;0.60;;
64210;SDS011;73293;48.538;14.354;2023-10-31T02:35:10;1.00;;;0.50;;
64210;SDS011;73293;48.538;14.354;2023-10-31T02:35:44;1.10;;;0.60;;
64210;SDS011;73293;48.538;14.354;2023-10-31T02:36:19;1.40;;;0.60;;
64210;SDS011;73293;48.538;14.354;2023-10-31T02:36:53;1.00;;;0.50;;
64210;SDS011;73293;48.538;14.354;2023-10-31T02:38:21;1.00;;;0.50;;
64210;SDS011;73293;48.538;14.354;2023-10-31T02:38:56;1.10;;;0.60;;
64210;SDS011;73293;48.538;14.354;2023-10-31T02:39:30;1.50;;;0.60;;
64210;SDS011;73293;48.538;14.354;2023-10-31T02:40:06;2.00;;;0.60;;
64210;SDS011;73293;48.538;14.354;2023-10-31T02:40:41;1.00;;;0.60;;
64210;SDS011;73293;48.538;14.354;2023-10-31T02:42:00;1.00;;;0.60;;
64210;SDS011;73293;48.538;14.354;2023-10-31T02:42:34;1.20;;;0.60;;
64210;SDS011;73293;48.538;14.354;2023-10-31T02:43:08;1.40;;;0.60;;
64210;SDS011;73293;48.538;14.354;2023-10-31T02:43:42;2.30;;;0.60;;
64210;SDS011;73293;48.538;14.354;2023-10-31T02:44:19;1.00;;;0.60;;
64210;SDS011;73293;48.538;14.354;2023-10-31T02:45:38;1.00;;;0.50;;
64210;SDS011;73293;48.538;14.354;2023-10-31T02:46:12;1.20;;;0.60;;
64210;SDS011;73293;48.538;14.354;2023-10-31T02:46:48;1.50;;;0.60;;
64210;SDS011;73293;48.538;14.354;2023-10-31T02:47:22;1.20;;;0.60;;
64210;SDS011;73293;48.538;14.354;2023-10-31T02:47:58;1.10;;;0.50;;
64210;SDS011;73293;48.538;14.354;2023-10-31T02:49:20;1.10;;;0.60;;
64210;SDS011;73293;48.538;14.354;2023-10-31T02:49:54;1.00;;;0.60;;
64210;SDS011;73293;48.538;14.354;2023-10-31T02:50:28;0.70;;;0.50;;
64210;SDS011;73293;48.538;14.354;2023-10-31T02:51:02;2.10;;;0.50;;
64210;SDS011;73293;48.538;14.354;2023-10-31T02:51:36;1.50;;;0.50;;
64210;SDS011;73293;48.538;14.354;2023-10-31T02:52:58;1.10;;;0.60;;
64210;SDS011;73293;48.538;14.354;2023-10-31T02:53:32;0.90;;;0.50;;
64210;SDS011;73293;48.538;14.354;2023-10-31T02:54:05;0.90;;;0.50;;
64210;SDS011;73293;48.538;14.354;2023-10-31T02:54:39;1.00;;;0.50;;
64210;SDS011;73293;48.538;14.354;2023-10-31T02:55:13;1.10;;;0.60;;
64210;SDS011;73293;48.538;14.354;2023-10-31T02:56:39;0.80;;;0.50;;
64210;SDS011;73293;48.538;14.354;2023-10-31T02:57:13;0.60;;;0.40;;
64210;SDS011;73293;48.538;14.354;2023-10-31T02:57:47;0.90;;;0.50;;
64210;SDS011;73293;48.538;14.354;2023-10-31T02:58:21;0.80;;;0.50;;
64210;SDS011;73293;48.538;14.354;2023-10-31T02:58:56;1.00;;;0.50;;
64210;SDS011;73293;48.538;14.354;2023-10-31T03:03:26;1.50;;;0.60;;
64210;SDS011;73293;48.538;14.354;2023-10-31T03:04:06;0.90;;;0.60;;
64210;SDS011;73293;48.538;14.354;2023-10-31T03:05:30;1.20;;;0.60;;
64210;SDS011;73293;48.538;14.354;2023-10-31T03:06:06;1.10;;;0.60;;
64210;SDS011;73293;48.538;14.354;2023-10-31T03:06:40;1.00;;;0.50;;
64210;SDS011;73293;48.538;14.354;2023-10-31T03:07:14;1.10;;;0.60;;
64210;SDS011;73293;48.538;14.354;2023-10-31T03:07:50;1.00;;;0.50;;
64210;SDS011;73293;48.538;14.354;2023-10-31T03:09:22;1.00;;;0.50;;
64210;SDS011;73293;48.538;14.354;2023-10-31T03:09:56;1.10;;;0.60;;
64210;SDS011;73293;48.538;14.354;2023-10-31T03:10:30;1.70;;;0.60;;
64210;SDS011;73293;48.538;14.354;2023-10-31T03:11:04;1.30;;;0.80;;
64210;SDS011;73293;48.538;14.354;2023-10-31T03:12:48;1.10;;;0.60;;
64210;SDS011;73293;48.538;14.354;2023-10-31T03:13:22;1.40;;;0.70;;
64210;SDS011;73293;48.538;14.354;2023-10-31T03:13:56;1.20;;;0.70;;
64210;SDS011;73293;48.538;14.354;2023-10-31T03:14:30;1.10;;;0.60;;
64210;SDS011;73293;48.538;14.354;2023-10-31T03:15:05;0.90;;;0.60;;
64210;SDS011;73293;48.538;14.354;2023-10-31T03:16:32;1.00;;;0.60;;
64210;SDS011;73293;48.538;14.354;2023-10-31T03:17:07;1.30;;;0.70;;
64210;SDS011;73293;48.538;14.354;2023-10-31T03:17:42;1.50;;;0.60;;
64210;SDS011;73293;48.538;14.354;2023-10-31T03:18:15;0.90;;;0.60;;
64210;SDS011;73293;48.538;14.354;2023-10-31T03:18:49;1.30;;;0.70;;
64210;SDS011;73293;48.538;14.354;2023-10-31T03:20:07;1.00;;;0.60;;
64210;SDS011;73293;48.538;14.354;2023-10-31T03:20:45;1.00;;;0.60;;
64210;SDS011;73293;48.538;14.354;2023-10-31T03:21:20;1.00;;;0.60;;
64210;SDS011;73293;48.538;14.354;2023-10-31T03:21:54;1.20;;;0.70;;
64210;SDS011;73293;48.538;14.354;2023-10-31T03:22:28;1.60;;;0.70;;
64210;SDS011;73293;48.538;14.354;2023-10-31T03:23:47;1.20;;;0.60;;
64210;SDS011;73293;48.538;14.354;2023-10-31T03:24:22;1.10;;;0.60;;
64210;SDS011;73293;48.538;14.354;2023-10-31T03:24:59;1.20;;;0.70;;
64210;SDS011;73293;48.538;14.354;2023-10-31T03:25:33;1.10;;;0.60;;
64210;SDS011;73293;48.538;14.354;2023-10-31T03:26:07;1.30;;;0.70;;
64210;SDS011;73293;48.538;14.354;2023-10-31T03:27:28;1.10;;;0.60;;
64210;SDS011;73293;48.538;14.354;2023-10-31T03:28:02;1.10;;;0.60;;
64210;SDS011;73293;48.538;14.354;2023-10-31T03:28:36;1.20;;;0.60;;
64210;SDS011;73293;48.538;14.354;2023-10-31T03:29:10;0.90;;;0.50;;
64210;SDS011;73293;48.538;14.354;2023-10-31T03:29:45;1.30;;;0.70;;
64210;SDS011;73293;48.538;14.354;2023-10-31T03:31:08;1.90;;;0.80;;
64210;SDS011;73293;48.538;14.354;2023-10-31T03:31:42;1.30;;;0.60;;
64210;SDS011;73293;48.538;14.354;2023-10-31T03:32:17;1.70;;;0.70;;
64210;SDS011;73293;48.538;14.354;2023-10-31T03:32:50;1.40;;;0.70;;
64210;SDS011;73293;48.538;14.354;2023-10-31T03:33:25;1.20;;;0.70;;
64210;SDS011;73293;48.538;14.354;2023-10-31T03:34:51;1.40;;;0.70;;
64210;SDS011;73293;48.538;14.354;2023-10-31T03:35:28;1.30;;;0.70;;
64210;SDS011;73293;48.538;14.354;2023-10-31T03:36:03;1.30;;;0.70;;
64210;SDS011;73293;48.538;14.354;2023-10-31T03:36:38;1.30;;;0.70;;
64210;SDS011;73293;48.538;14.354;2023-10-31T03:37:13;1.60;;;0.80;;
64210;SDS011;73293;48.538;14.354;2023-10-31T03:38:30;1.80;;;0.80;;
64210;SDS011;73293;48.538;14.354;2023-10-31T03:39:04;1.20;;;0.70;;
64210;SDS011;73293;48.538;14.354;2023-10-31T03:39:39;1.40;;;0.70;;
64210;SDS011;73293;48.538;14.354;2023-10-31T03:40:12;1.40;;;0.70;;
64210;SDS011;73293;48.538;14.354;2023-10-31T03:40:47;1.30;;;0.70;;
64210;SDS011;73293;48.538;14.354;2023-10-31T03:42:11;1.30;;;0.80;;
64210;SDS011;73293;48.538;14.354;2023-10-31T03:42:48;1.10;;;0.60;;
64210;SDS011;73293;48.538;14.354;2023-10-31T03:43:22;1.30;;;0.70;;
64210;SDS011;73293;48.538;14.354;2023-10-31T03:43:56;1.40;;;0.80;;
64210;SDS011;73293;48.538;14.354;2023-10-31T03:44:30;1.40;;;0.70;;
64210;SDS011;73293;48.538;14.354;2023-10-31T03:45:52;1.60;;;0.90;;
64210;SDS011;73293;48.538;14.354;2023-10-31T03:46:27;1.50;;;0.90;;
64210;SDS011;73293;48.538;14.354;2023-10-31T03:47:50;1.50;;;0.90;;
64210;SDS011;73293;48.538;14.354;2023-10-31T03:48:24;1.60;;;0.90;;
64210;SDS011;73293;48.538;14.354;2023-10-31T03:49:46;1.70;;;0.90;;
64210;SDS011;73293;48.538;14.354;2023-10-31T03:50:20;2.10;;;0.90;;
64210;SDS011;73293;48.538;14.354;2023-10-31T03:50:54;1.50;;;0.90;;
64210;SDS011;73293;48.538;14.354;2023-10-31T03:51:28;1.80;;;1.00;;
64210;SDS011;73293;48.538;14.354;2023-10-31T03:52:02;2.10;;;0.90;;
64210;SDS011;73293;48.538;14.354;2023-10-31T03:53:24;1.40;;;0.90;;
64210;SDS011;73293;48.538;14.354;2023-10-31T03:53:58;2.20;;;0.80;;
64210;SDS011;73293;48.538;14.354;2023-10-31T03:54:32;1.70;;;1.00;;
64210;SDS011;73293;48.538;14.354;2023-10-31T03:55:07;1.80;;;1.00;;
64210;SDS011;73293;48.538;14.354;2023-10-31T03:55:43;2.20;;;1.20;;
64210;SDS011;73293;48.538;14.354;2023-10-31T03:57:04;1.70;;;1.00;;
64210;SDS011;73293;48.538;14.354;2023-10-31T03:57:39;1.70;;;1.10;;
64210;SDS011;73293;48.538;14.354;2023-10-31T03:58:13;1.90;;;1.00;;
64210;SDS011;73293;48.538;14.354;2023-10-31T03:58:49;1.50;;;0.90;;
64210;SDS011;73293;48.538;14.354;2023-10-31T03:59:23;1.40;;;0.80;;
64210;SDS011;73293;48.538;14.354;2023-10-31T04:00:45;1.90;;;1.00;;
64210;SDS011;73293;48.538;14.354;2023-10-31T04:01:18;2.30;;;1.00;;
64210;SDS011;73293;48.538;14.354;2023-10-31T04:01:55;1.50;;;0.90;;
64210;SDS011;73293;48.538;14.354;2023-10-31T04:02:30;1.70;;;0.90;;
64210;SDS011;73293;48.538;14.354;2023-10-31T04:03:04;2.10;;;0.90;;
64210;SDS011;73293;48.538;14.354;2023-10-31T04:04:28;1.70;;;1.00;;
64210;SDS011;73293;48.538;14.354;2023-10-31T04:05:03;1.60;;;0.90;;
64210;SDS011;73293;48.538;14.354;2023-10-31T04:05:37;2.30;;;0.90;;
64210;SDS011;73293;48.538;14.354;2023-10-31T04:06:11;1.50;;;0.90;;
64210;SDS011;73293;48.538;14.354;2023-10-31T04:06:49;1.60;;;0.90;;
64210;SDS011;73293;48.538;14.354;2023-10-31T04:08:07;2.10;;;0.90;;
64210;SDS011;73293;48.538;14.354;2023-10-31T04:08:41;1.40;;;0.80;;
64210;SDS011;73293;48.538;14.354;2023-10-31T04:09:15;1.60;;;0.80;;
64210;SDS011;73293;48.538;14.354;2023-10-31T04:09:49;1.50;;;0.80;;
64210;SDS011;73293;48.538;14.354;2023-10-31T04:10:23;1.50;;;0.80;;
64210;SDS011;73293;48.538;14.354;2023-10-31T04:11:49;1.60;;;0.90;;
64210;SDS011;73293;48.538;14.354;2023-10-31T04:12:22;1.20;;;0.70;;
64210;SDS011;73293;48.538;14.354;2023-10-31T04:12:56;1.30;;;0.80;;
64210;SDS011;73293;48.538;14.354;2023-10-31T04:13:31;1.10;;;0.70;;
64210;SDS011;73293;48.538;14.354;2023-10-31T04:14:05;1.40;;;0.80;;
64210;SDS011;73293;48.538;14.354;2023-10-31T04:15:30;1.10;;;0.60;;
64210;SDS011;73293;48.538;14.354;2023-10-31T04:16:05;1.40;;;0.70;;
64210;SDS011;73293;48.538;14.354;2023-10-31T04:16:39;1.40;;;0.70;;
64210;SDS011;73293;48.538;14.354;2023-10-31T04:17:19;1.00;;;0.50;;
64210;SDS011;73293;48.538;14.354;2023-10-31T04:17:52;1.50;;;0.80;;
64210;SDS011;73293;48.538;14.354;2023-10-31T04:19:14;1.90;;;0.70;;
64210;SDS011;73293;48.538;14.354;2023-10-31T04:19:48;1.30;;;0.70;;
64210;SDS011;73293;48.538;14.354;2023-10-31T04:20:22;1.30;;;0.60;;
64210;SDS011;73293;48.538;14.354;2023-10-31T04:20:56;1.00;;;0.60;;
64210;SDS011;73293;48.538;14.354;2023-10-31T04:21:31;2.30;;;0.60;;
64210;SDS011;73293;48.538;14.354;2023-10-31T04:22:55;1.30;;;0.70;;
64210;SDS011;73293;48.538;14.354;2023-10-31T04:23:29;0.90;;;0.50;;
64210;SDS011;73293;48.538;14.354;2023-10-31T04:24:04;1.40;;;0.60;;
64210;SDS011;73293;48.538;14.354;2023-10-31T04:24:38;1.20;;;0.50;;
64210;SDS011;73293;48.538;14.354;2023-10-31T04:25:13;1.20;;;0.60;;
64210;SDS011;73293;48.538;14.354;2023-10-31T04:26:36;1.10;;;0.60;;
64210;SDS011;73293;48.538;14.354;2023-10-31T04:27:12;1.10;;;0.60;;
64210;SDS011;73293;48.538;14.354;2023-10-31T04:27:46;1.20;;;0.60;;
64210;SDS011;73293;48.538;14.354;2023-10-31T04:28:20;1.10;;;0.60;;
64210;SDS011;73293;48.538;14.354;2023-10-31T04:28:54;1.00;;;0.50;;
64210;SDS011;73293;48.538;14.354;2023-10-31T04:30:30;1.00;;;0.60;;
64210;SDS011;73293;48.538;14.354;2023-10-31T04:31:04;1.00;;;0.50;;
64210;SDS011;73293;48.538;14.354;2023-10-31T04:31:39;1.30;;;0.50;;